createdAt,value
2018-08-13T00:00:10.908Z,13.80
2018-08-13T00:02:39.308Z,13.80
2018-08-13T00:05:07.723Z,13.80
2018-08-13T00:07:36.111Z,13.80
2018-08-13T00:10:04.945Z,13.80
2018-08-13T00:12:33.397Z,13.60
2018-08-13T00:15:01.843Z,13.40
2018-08-13T00:17:30.298Z,13.30
2018-08-13T00:19:58.724Z,13.20
2018-08-13T00:22:27.138Z,13.10
2018-08-13T00:24:55.551Z,13.20
2018-08-13T00:27:23.956Z,13.30
2018-08-13T00:29:52.364Z,13.40
2018-08-13T00:32:20.846Z,13.50
2018-08-13T00:34:49.239Z,13.60
2018-08-13T00:37:17.688Z,13.50
2018-08-13T00:39:46.128Z,13.30
2018-08-13T00:42:14.576Z,13.20
2018-08-13T00:44:43.015Z,13.20
2018-08-13T00:47:11.456Z,13.10
2018-08-13T00:49:39.896Z,13.20
2018-08-13T00:52:08.375Z,13.20
2018-08-13T00:54:36.815Z,13.20
2018-08-13T00:57:05.420Z,13.20
2018-08-13T00:59:33.832Z,13.20
2018-08-13T01:02:02.287Z,13.20
2018-08-13T01:04:30.681Z,13.20
2018-08-13T01:06:59.092Z,13.30
2018-08-13T01:09:27.557Z,13.30
2018-08-13T01:11:55.993Z,13.30
2018-08-13T01:14:24.396Z,13.10
2018-08-13T01:16:52.841Z,13.00
2018-08-13T01:19:21.292Z,12.80
2018-08-13T01:21:49.704Z,12.70
2018-08-13T01:24:18.132Z,12.70
2018-08-13T01:26:46.533Z,12.70
2018-08-13T01:29:14.975Z,12.80
2018-08-13T01:31:43.378Z,12.80
2018-08-13T01:34:11.833Z,12.80
2018-08-13T01:36:40.228Z,12.90
2018-08-13T01:39:10.215Z,12.90
2018-08-13T01:41:38.664Z,12.90
2018-08-13T01:44:07.280Z,12.80
2018-08-13T01:46:35.945Z,12.60
2018-08-13T01:49:04.753Z,12.60
2018-08-13T01:51:33.192Z,12.50
2018-08-13T01:54:01.628Z,12.50
2018-08-13T01:56:30.040Z,12.50
2018-08-13T01:58:58.484Z,12.50
2018-08-13T02:01:27.027Z,12.50
2018-08-13T02:03:55.369Z,12.60
2018-08-13T02:06:23.851Z,12.70
2018-08-13T02:08:52.304Z,12.60
2018-08-13T02:11:20.719Z,12.40
2018-08-13T02:13:49.127Z,12.30
2018-08-13T02:16:17.576Z,12.30
2018-08-13T02:18:45.996Z,12.20
2018-08-13T02:21:14.465Z,12.20
2018-08-13T02:23:42.894Z,12.20
2018-08-13T02:26:11.348Z,12.20
2018-08-13T02:28:39.829Z,12.30
2018-08-13T02:31:08.267Z,12.30
2018-08-13T02:33:36.756Z,12.30
2018-08-13T02:36:05.230Z,12.40
2018-08-13T02:38:33.685Z,12.40
2018-08-13T02:41:02.175Z,12.40
2018-08-13T02:43:30.633Z,12.40
2018-08-13T02:45:59.057Z,12.40
2018-08-13T02:48:27.537Z,12.40
2018-08-13T02:50:55.964Z,12.40
2018-08-13T02:53:24.409Z,12.30
2018-08-13T02:55:52.840Z,12.10
2018-08-13T02:58:21.333Z,11.90
2018-08-13T03:00:49.742Z,11.80
2018-08-13T03:03:18.256Z,11.80
2018-08-13T03:05:46.649Z,11.90
2018-08-13T03:08:15.113Z,11.90
2018-08-13T03:10:43.504Z,11.90
2018-08-13T03:13:12.005Z,11.90
2018-08-13T03:15:40.424Z,11.90
2018-08-13T03:18:08.907Z,11.90
2018-08-13T03:20:37.323Z,11.90
2018-08-13T03:23:06.104Z,11.80
2018-08-13T03:25:34.524Z,11.80
2018-08-13T03:28:02.933Z,11.70
2018-08-13T03:30:31.371Z,11.80
2018-08-13T03:32:59.821Z,11.80
2018-08-13T03:35:28.210Z,11.90
2018-08-13T03:37:56.623Z,11.80
2018-08-13T03:40:25.022Z,11.90
2018-08-13T03:42:53.444Z,11.90
2018-08-13T03:45:21.846Z,12.00
2018-08-13T03:47:50.292Z,12.00
2018-08-13T03:50:20.787Z,12.00
2018-08-13T03:52:49.224Z,11.90
2018-08-13T03:55:17.667Z,11.90
2018-08-13T03:57:46.115Z,12.00
2018-08-13T04:00:15.555Z,12.00
2018-08-13T04:02:44.146Z,12.00
2018-08-13T04:05:13.482Z,11.90
2018-08-13T04:07:41.951Z,11.80
2018-08-13T04:10:11.751Z,11.70
2018-08-13T04:12:42.253Z,11.70
2018-08-13T04:15:12.195Z,11.60
2018-08-13T04:17:40.643Z,11.50
2018-08-13T04:20:10.936Z,11.60
2018-08-13T04:22:39.417Z,11.80
2018-08-13T04:25:08.884Z,11.90
2018-08-13T04:27:37.643Z,11.90
2018-08-13T04:30:10.039Z,12.00
2018-08-13T04:32:38.455Z,12.00
2018-08-13T04:35:06.936Z,12.10
2018-08-13T04:37:35.347Z,12.30
2018-08-13T04:40:04.788Z,12.60
2018-08-13T04:42:33.240Z,13.00
2018-08-13T04:45:01.693Z,13.40
2018-08-13T04:47:30.119Z,13.90
2018-08-13T04:49:58.598Z,14.60
2018-08-13T04:52:27.044Z,15.30
2018-08-13T04:54:55.518Z,15.90
2018-08-13T04:57:24.035Z,16.40
2018-08-13T04:59:52.481Z,17.30
2018-08-13T05:02:20.925Z,18.30
2018-08-13T05:04:49.472Z,19.00
2018-08-13T05:07:18.332Z,19.60
2018-08-13T05:09:46.782Z,19.80
2018-08-13T05:12:15.225Z,19.40
2018-08-13T05:14:43.627Z,19.20
2018-08-13T05:17:12.076Z,18.70
2018-08-13T05:19:40.541Z,17.90
2018-08-13T05:22:09.044Z,17.30
2018-08-13T05:24:37.473Z,17.50
2018-08-13T05:27:05.960Z,18.20
2018-08-13T05:29:34.404Z,19.20
2018-08-13T05:32:02.931Z,20.10
2018-08-13T05:34:31.369Z,20.90
2018-08-13T05:36:59.859Z,20.90
2018-08-13T05:39:28.314Z,21.20
2018-08-13T05:41:59.619Z,22.00
2018-08-13T05:44:28.074Z,23.10
2018-08-13T05:46:56.527Z,24.10
2018-08-13T05:49:25.004Z,24.60
2018-08-13T05:51:53.427Z,24.80
2018-08-13T05:54:21.907Z,25.10
2018-08-13T05:56:50.349Z,25.50
2018-08-13T05:59:18.800Z,25.90
2018-08-13T06:01:47.228Z,26.60
2018-08-13T06:04:15.684Z,27.30
2018-08-13T06:06:44.107Z,27.40
2018-08-13T06:09:13.315Z,27.40
2018-08-13T06:11:41.819Z,27.70
2018-08-13T06:14:10.335Z,27.20
2018-08-13T06:16:38.805Z,26.60
2018-08-13T06:19:07.339Z,26.30
2018-08-13T06:21:35.781Z,26.50
2018-08-13T06:24:04.283Z,27.20
2018-08-13T06:26:32.738Z,27.70
2018-08-13T06:29:01.188Z,28.40
2018-08-13T06:31:29.628Z,28.70
2018-08-13T06:33:58.095Z,29.30
2018-08-13T06:36:26.544Z,29.80
2018-08-13T06:38:55.005Z,29.80
2018-08-13T06:41:23.421Z,30.30
2018-08-13T06:43:51.870Z,30.80
2018-08-13T06:46:20.338Z,31.00
2018-08-13T06:48:48.800Z,30.10
2018-08-13T06:51:17.256Z,29.00
2018-08-13T06:53:45.689Z,28.00
2018-08-13T06:56:14.173Z,26.90
2018-08-13T06:58:43.311Z,25.80
2018-08-13T07:01:13.963Z,24.90
2018-08-13T07:03:43.375Z,24.30
2018-08-13T07:06:13.875Z,23.90
2018-08-13T07:08:46.434Z,23.80
2018-08-13T07:11:15.000Z,23.50
2018-08-13T07:13:43.484Z,23.20
2018-08-13T07:16:11.947Z,23.70
2018-08-13T07:18:40.519Z,23.80
2018-08-13T07:21:09.054Z,23.60
2018-08-13T07:23:37.520Z,23.30
2018-08-13T07:26:05.999Z,22.90
2018-08-13T07:28:34.482Z,22.60
2018-08-13T07:31:02.936Z,22.50
2018-08-13T07:33:31.432Z,22.40
2018-08-13T07:35:59.910Z,22.30
2018-08-13T07:38:28.397Z,22.10
2018-08-13T07:40:56.859Z,21.90
2018-08-13T07:43:25.291Z,21.50
2018-08-13T07:45:53.800Z,21.10
2018-08-13T07:48:22.274Z,20.90
2018-08-13T07:50:50.723Z,20.70
2018-08-13T07:53:19.212Z,20.60
2018-08-13T07:55:47.665Z,20.50
2018-08-13T07:58:16.121Z,20.50
2018-08-13T08:00:44.574Z,20.50
2018-08-13T08:03:13.088Z,20.60
2018-08-13T08:05:41.532Z,20.60
2018-08-13T08:08:10.024Z,20.70
2018-08-13T08:10:38.496Z,21.00
2018-08-13T08:13:07.357Z,21.40
2018-08-13T08:15:35.797Z,21.90
2018-08-13T08:18:04.416Z,22.20
2018-08-13T08:20:32.881Z,22.10
2018-08-13T08:23:01.396Z,22.00
2018-08-13T08:25:29.871Z,22.10
2018-08-13T08:27:58.327Z,22.50
2018-08-13T08:30:26.749Z,23.10
2018-08-13T08:32:55.232Z,23.80
2018-08-13T08:35:23.704Z,24.80
2018-08-13T08:37:52.170Z,25.60
2018-08-13T08:40:21.463Z,26.00
2018-08-13T08:42:50.534Z,26.50
2018-08-13T08:45:22.302Z,26.80
2018-08-13T08:47:51.688Z,27.30
2018-08-13T08:50:20.188Z,27.40
2018-08-13T08:52:48.742Z,27.00
2018-08-13T08:55:18.087Z,26.60
2018-08-13T08:57:47.180Z,26.40
2018-08-13T09:00:18.007Z,26.10
2018-08-13T09:02:46.511Z,25.70
2018-08-13T09:05:15.396Z,25.20
2018-08-13T09:07:44.566Z,24.60
2018-08-13T09:10:13.190Z,24.30
2018-08-13T09:12:41.639Z,24.10
2018-08-13T09:15:13.166Z,24.50
2018-08-13T09:17:52.913Z,24.70
2018-08-13T09:20:32.623Z,24.70
2018-08-13T09:23:12.348Z,24.70
2018-08-13T09:25:52.072Z,24.50
2018-08-13T09:28:31.786Z,24.40
2018-08-13T09:31:11.808Z,24.60
2018-08-13T09:33:51.609Z,24.50
2018-08-13T09:36:20.052Z,24.20
2018-08-13T09:38:48.496Z,23.70
2018-08-13T09:41:17.022Z,23.30
2018-08-13T09:43:45.511Z,22.90
2018-08-13T09:46:13.991Z,22.80
2018-08-13T09:48:42.432Z,22.40
2018-08-13T09:51:10.888Z,22.30
2018-08-13T09:53:39.359Z,22.20
2018-08-13T09:56:07.814Z,22.10
2018-08-13T09:58:36.251Z,22.00
2018-08-13T10:01:07.360Z,22.00
2018-08-13T10:03:35.805Z,21.70
2018-08-13T10:06:04.323Z,21.50
2018-08-13T10:08:32.791Z,21.30
2018-08-13T10:11:01.313Z,21.30
2018-08-13T10:13:29.939Z,21.20
2018-08-13T10:15:58.391Z,21.00
2018-08-13T10:18:26.844Z,20.80
2018-08-13T10:20:55.294Z,20.80
2018-08-13T10:23:23.755Z,20.70
2018-08-13T10:25:52.265Z,20.60
2018-08-13T10:28:20.755Z,20.50
2018-08-13T10:30:49.212Z,20.50
2018-08-13T10:33:17.671Z,20.50
2018-08-13T10:35:46.117Z,20.50
2018-08-13T10:38:14.579Z,20.40
2018-08-13T10:40:43.008Z,20.40
2018-08-13T10:43:11.482Z,20.50
2018-08-13T10:45:39.936Z,20.40
2018-08-13T10:48:08.479Z,20.40
2018-08-13T10:50:36.920Z,20.50
2018-08-13T10:53:05.410Z,20.50
2018-08-13T10:55:33.850Z,20.50
2018-08-13T10:58:02.397Z,20.40
2018-08-13T11:00:30.868Z,20.40
2018-08-13T11:02:59.488Z,20.30
2018-08-13T11:05:27.936Z,20.20
2018-08-13T11:07:56.388Z,20.20
2018-08-13T11:10:24.904Z,20.20
2018-08-13T11:12:53.348Z,20.10
2018-08-13T11:15:21.796Z,20.10
2018-08-13T11:17:50.239Z,20.20
2018-08-13T11:20:18.723Z,20.20
2018-08-13T11:22:47.583Z,20.20
2018-08-13T11:25:16.418Z,20.20
2018-08-13T11:27:44.979Z,20.30
2018-08-13T11:30:15.659Z,20.30
2018-08-13T11:32:44.161Z,20.20
2018-08-13T11:35:13.188Z,20.20
2018-08-13T11:37:41.705Z,20.30
2018-08-13T11:40:13.785Z,20.40
2018-08-13T11:42:42.321Z,20.40
2018-08-13T11:45:11.061Z,20.50
2018-08-13T11:47:40.064Z,20.60
2018-08-13T11:50:11.916Z,20.70
2018-08-13T11:52:40.393Z,20.90
2018-08-13T11:55:08.920Z,21.00
2018-08-13T11:57:37.458Z,21.20
2018-08-13T12:00:07.944Z,21.30
2018-08-13T12:02:36.709Z,21.20
2018-08-13T12:05:06.866Z,21.10
2018-08-13T12:07:35.378Z,21.10
2018-08-13T12:10:03.919Z,21.00
2018-08-13T12:12:32.390Z,20.90
2018-08-13T12:15:00.884Z,20.90
2018-08-13T12:17:29.566Z,20.70
2018-08-13T12:19:57.995Z,20.70
2018-08-13T12:22:26.559Z,20.80
2018-08-13T12:24:54.990Z,20.80
2018-08-13T12:27:23.511Z,20.80
2018-08-13T12:29:52.175Z,20.90
2018-08-13T12:32:20.640Z,20.90
2018-08-13T12:34:49.085Z,20.90
2018-08-13T12:37:17.535Z,21.00
2018-08-13T12:39:45.976Z,21.10
2018-08-13T12:42:14.443Z,21.10
2018-08-13T12:44:42.939Z,21.00
2018-08-13T12:47:11.397Z,20.90
2018-08-13T12:49:39.836Z,20.90
2018-08-13T12:52:08.296Z,20.90
2018-08-13T12:54:36.823Z,20.90
2018-08-13T12:57:05.635Z,20.90
2018-08-13T12:59:34.060Z,20.80
2018-08-13T13:02:02.495Z,21.00
2018-08-13T13:04:30.911Z,21.20
2018-08-13T13:06:59.351Z,21.40
2018-08-13T13:09:27.776Z,21.60
2018-08-13T13:11:56.305Z,21.70
2018-08-13T13:14:24.751Z,21.90
2018-08-13T13:16:53.237Z,22.00
2018-08-13T13:19:21.719Z,22.00
2018-08-13T13:21:50.159Z,22.00
2018-08-13T13:24:18.619Z,21.80
2018-08-13T13:26:47.099Z,21.60
2018-08-13T13:29:15.575Z,21.40
2018-08-13T13:31:44.048Z,21.30
2018-08-13T13:34:12.520Z,21.50
2018-08-13T13:36:40.960Z,21.60
2018-08-13T13:39:09.868Z,21.70
2018-08-13T13:41:38.317Z,21.80
2018-08-13T13:44:06.813Z,21.70
2018-08-13T13:46:35.292Z,21.70
2018-08-13T13:49:03.782Z,21.50
2018-08-13T13:51:32.259Z,21.50
2018-08-13T13:54:00.666Z,21.40
2018-08-13T13:56:29.081Z,21.40
2018-08-13T13:58:57.528Z,21.30
2018-08-13T14:01:25.957Z,21.30
2018-08-13T14:03:54.770Z,21.30
2018-08-13T14:06:23.328Z,21.30
2018-08-13T14:08:51.845Z,21.20
2018-08-13T14:11:20.316Z,21.00
2018-08-13T14:13:48.777Z,21.00
2018-08-13T14:16:17.312Z,20.90
2018-08-13T14:18:45.780Z,20.90
2018-08-13T14:21:14.241Z,20.80
2018-08-13T14:23:42.722Z,20.80
2018-08-13T14:26:11.192Z,20.70
2018-08-13T14:28:39.651Z,20.70
2018-08-13T14:31:08.145Z,20.70
2018-08-13T14:33:36.628Z,20.70
2018-08-13T14:36:05.170Z,20.90
2018-08-13T14:38:33.621Z,21.10
2018-08-13T14:41:02.079Z,21.30
2018-08-13T14:43:30.552Z,21.40
2018-08-13T14:45:58.996Z,21.50
2018-08-13T14:48:27.460Z,21.60
2018-08-13T14:50:55.976Z,21.70
2018-08-13T14:53:24.413Z,21.80
2018-08-13T14:55:52.858Z,21.70
2018-08-13T14:58:21.283Z,21.70
2018-08-13T15:00:49.759Z,22.10
2018-08-13T15:03:18.243Z,22.40
2018-08-13T15:05:46.736Z,22.70
2018-08-13T15:08:15.204Z,22.90
2018-08-13T15:10:43.661Z,23.30
2018-08-13T15:13:12.178Z,23.40
2018-08-13T15:15:40.604Z,23.50
2018-08-13T15:18:09.085Z,23.20
2018-08-13T15:20:37.569Z,23.00
2018-08-13T15:23:06.068Z,23.00
2018-08-13T15:25:34.840Z,22.90
2018-08-13T15:28:03.427Z,23.00
2018-08-13T15:30:31.812Z,23.00
2018-08-13T15:33:00.229Z,22.80
2018-08-13T15:35:28.708Z,22.60
2018-08-13T15:37:57.142Z,22.40
2018-08-13T15:40:25.618Z,22.40
2018-08-13T15:42:54.083Z,22.50
2018-08-13T15:45:23.588Z,22.60
2018-08-13T15:47:52.178Z,22.60
2018-08-13T15:50:21.783Z,22.70
2018-08-13T15:52:50.692Z,22.80
2018-08-13T15:55:19.302Z,23.00
2018-08-13T15:57:47.892Z,22.80
2018-08-13T16:00:18.554Z,22.80
2018-08-13T16:02:47.433Z,22.90
2018-08-13T16:05:15.906Z,23.10
2018-08-13T16:07:44.551Z,23.30
2018-08-13T16:10:14.455Z,23.30
2018-08-13T16:12:43.359Z,23.20
2018-08-13T16:15:11.867Z,23.20
2018-08-13T16:17:40.917Z,23.30
2018-08-13T16:20:13.596Z,23.50
2018-08-13T16:22:43.039Z,23.60
2018-08-13T16:25:11.618Z,23.60
2018-08-13T16:27:40.331Z,23.70
2018-08-13T16:30:20.347Z,23.40
2018-08-13T16:32:49.361Z,23.20
2018-08-13T16:35:18.834Z,23.10
2018-08-13T16:37:47.884Z,23.00
2018-08-13T16:40:17.233Z,22.90
2018-08-13T16:42:46.100Z,22.80
2018-08-13T16:45:15.764Z,22.90
2018-08-13T16:47:44.321Z,22.80
2018-08-13T16:50:21.630Z,22.70
2018-08-13T16:52:50.178Z,22.60
2018-08-13T16:55:18.674Z,22.60
2018-08-13T16:57:47.220Z,22.50
2018-08-13T17:00:19.143Z,22.50
2018-08-13T17:02:47.564Z,22.50
2018-08-13T17:05:16.046Z,22.50
2018-08-13T17:07:44.479Z,22.50
2018-08-13T17:10:18.539Z,22.50
2018-08-13T17:12:48.800Z,22.50
2018-08-13T17:15:17.564Z,22.50
2018-08-13T17:17:48.042Z,22.50
2018-08-13T17:20:18.564Z,22.50
2018-08-13T17:22:47.100Z,22.50
2018-08-13T17:25:16.059Z,22.50
2018-08-13T17:27:44.764Z,22.40
2018-08-13T17:30:18.630Z,22.30
2018-08-13T17:32:48.239Z,22.20
2018-08-13T17:35:17.945Z,22.20
2018-08-13T17:37:46.510Z,22.20
2018-08-13T17:40:18.119Z,22.20
2018-08-13T17:42:47.150Z,22.20
2018-08-13T17:45:15.659Z,22.20
2018-08-13T17:47:44.139Z,22.20
2018-08-13T17:50:15.332Z,22.10
2018-08-13T17:52:44.104Z,22.00
2018-08-13T17:55:13.393Z,22.00
2018-08-13T17:57:42.261Z,22.00
2018-08-13T18:00:15.391Z,21.90
2018-08-13T18:02:43.945Z,21.80
2018-08-13T18:05:15.807Z,21.70
2018-08-13T18:07:44.412Z,21.60
2018-08-13T18:10:14.764Z,21.50
2018-08-13T18:12:43.259Z,21.50
2018-08-13T18:15:14.316Z,21.50
2018-08-13T18:17:43.412Z,21.40
2018-08-13T18:20:12.265Z,21.30
2018-08-13T18:22:40.712Z,21.20
2018-08-13T18:25:10.816Z,21.10
2018-08-13T18:27:40.157Z,21.00
2018-08-13T18:30:11.441Z,20.80
2018-08-13T18:32:39.995Z,20.60
2018-08-13T18:35:08.500Z,20.40
2018-08-13T18:37:36.994Z,20.30
2018-08-13T18:40:07.588Z,20.10
2018-08-13T18:42:36.088Z,20.00
2018-08-13T18:45:05.556Z,19.90
2018-08-13T18:47:34.139Z,19.80
2018-08-13T18:50:02.640Z,19.70
2018-08-13T18:52:31.113Z,19.60
2018-08-13T18:54:59.539Z,19.50
2018-08-13T18:57:27.992Z,19.40
2018-08-13T18:59:56.437Z,19.30
2018-08-13T19:02:24.895Z,19.20
2018-08-13T19:04:53.347Z,19.20
2018-08-13T19:07:21.807Z,19.10
2018-08-13T19:09:50.291Z,19.10
2018-08-13T19:12:18.726Z,19.10
2018-08-13T19:14:47.161Z,19.00
2018-08-13T19:17:15.659Z,18.90
2018-08-13T19:19:44.083Z,18.90
2018-08-13T19:22:12.543Z,18.80
2018-08-13T19:24:40.989Z,18.70
2018-08-13T19:27:09.485Z,18.70
2018-08-13T19:29:37.978Z,18.60
2018-08-13T19:32:06.464Z,18.60
2018-08-13T19:34:34.915Z,18.50
2018-08-13T19:37:03.388Z,18.50
2018-08-13T19:39:31.876Z,18.40
2018-08-13T19:42:00.388Z,18.40
2018-08-13T19:44:28.896Z,18.40
2018-08-13T19:46:57.360Z,18.30
2018-08-13T19:49:25.825Z,18.30
2018-08-13T19:51:54.294Z,18.20
2018-08-13T19:54:22.739Z,18.10
2018-08-13T19:56:51.209Z,18.10
2018-08-13T19:59:19.677Z,18.00
2018-08-13T20:01:48.158Z,18.00
2018-08-13T20:04:16.608Z,18.00
2018-08-13T20:06:45.091Z,18.00
2018-08-13T20:09:13.572Z,18.00
2018-08-13T20:11:42.026Z,18.00
2018-08-13T20:14:10.493Z,17.90
2018-08-13T20:16:38.957Z,17.90
2018-08-13T20:19:07.419Z,17.90
2018-08-13T20:21:35.888Z,17.90
2018-08-13T20:24:04.388Z,17.90
2018-08-13T20:26:33.655Z,17.90
2018-08-13T20:29:02.149Z,17.90
2018-08-13T20:31:30.575Z,17.90
2018-08-13T20:33:59.058Z,17.80
2018-08-13T20:36:27.508Z,17.80
2018-08-13T20:38:56.073Z,17.80
2018-08-13T20:41:24.438Z,17.80
2018-08-13T20:43:52.895Z,17.80
2018-08-13T20:46:21.319Z,17.80
2018-08-13T20:48:49.787Z,17.80
2018-08-13T20:51:18.327Z,17.80
2018-08-13T20:53:46.756Z,17.70
2018-08-13T20:56:15.239Z,17.70
2018-08-13T20:58:43.677Z,17.70
2018-08-13T21:01:12.131Z,17.70
2018-08-13T21:03:40.623Z,17.70
2018-08-13T21:06:09.092Z,17.70
2018-08-13T21:08:37.592Z,17.80
2018-08-13T21:11:06.074Z,17.80
2018-08-13T21:13:34.532Z,17.80
2018-08-13T21:16:03.060Z,17.90
2018-08-13T21:18:31.483Z,17.80
2018-08-13T21:20:59.924Z,17.90
2018-08-13T21:23:28.578Z,17.90
2018-08-13T21:25:57.031Z,17.90
2018-08-13T21:28:25.485Z,17.90
2018-08-13T21:30:53.932Z,17.90
2018-08-13T21:33:22.370Z,17.80
2018-08-13T21:35:50.815Z,17.80
2018-08-13T21:38:19.271Z,17.70
2018-08-13T21:40:47.762Z,17.60
2018-08-13T21:43:16.205Z,17.50
2018-08-13T21:45:44.667Z,17.40
2018-08-13T21:48:13.140Z,17.40
2018-08-13T21:50:41.584Z,17.40
2018-08-13T21:53:10.031Z,17.30
2018-08-13T21:55:38.500Z,17.30
2018-08-13T21:58:06.931Z,17.20
2018-08-13T22:00:40.836Z,17.30
2018-08-13T22:03:10.357Z,17.30
2018-08-13T22:05:38.824Z,17.20
2018-08-13T22:08:07.336Z,17.20
2018-08-13T22:10:35.783Z,17.20
2018-08-13T22:13:04.308Z,17.20
2018-08-13T22:15:33.368Z,17.20
2018-08-13T22:18:03.087Z,17.20
2018-08-13T22:20:32.805Z,17.20
2018-08-13T22:23:02.064Z,17.20
2018-08-13T22:25:32.188Z,17.10
2018-08-13T22:28:01.211Z,17.10
2018-08-13T22:30:31.293Z,17.00
2018-08-13T22:32:59.771Z,17.00
2018-08-13T22:35:28.244Z,16.90
2018-08-13T22:37:56.744Z,16.90
2018-08-13T22:40:25.179Z,16.90
2018-08-13T22:42:53.688Z,16.80
2018-08-13T22:45:23.139Z,16.80
2018-08-13T22:47:51.703Z,16.80
2018-08-13T22:50:20.223Z,16.70
2018-08-13T22:52:48.726Z,16.60
2018-08-13T22:55:18.115Z,16.50
2018-08-13T22:57:46.676Z,16.40
2018-08-13T23:00:17.431Z,16.40
2018-08-13T23:02:46.715Z,16.40
2018-08-13T23:05:23.217Z,16.40
2018-08-13T23:07:51.741Z,16.40
2018-08-13T23:10:21.287Z,16.40
2018-08-13T23:12:50.968Z,16.50
2018-08-13T23:15:19.924Z,16.50
2018-08-13T23:17:48.523Z,16.50
2018-08-13T23:20:21.283Z,16.40
2018-08-13T23:22:55.353Z,16.40
2018-08-13T23:25:23.876Z,16.40
2018-08-13T23:27:53.551Z,16.40
2018-08-13T23:30:22.046Z,16.40
2018-08-13T23:32:51.747Z,16.30
2018-08-13T23:35:21.047Z,16.30
2018-08-13T23:37:49.934Z,16.30
2018-08-13T23:40:18.428Z,16.20
2018-08-13T23:42:46.920Z,16.10
2018-08-13T23:45:18.404Z,16.10
2018-08-13T23:47:46.915Z,16.10
2018-08-13T23:50:17.268Z,16.10
2018-08-13T23:52:45.863Z,16.10
2018-08-13T23:55:33.688Z,16.10
2018-08-13T23:58:02.678Z,16.10
